Obluc'E, Russia
Current Conditions -  °F | °C
As of 7:30 PM on Thursday 18 Dec 2014 (Local Time) from UHHH Reporting Station
Clear Clear  
Wind Chill: -26°   Ceiling: Unl
Heat Index: -8°   Visibility: 6mi
Dew Point: -15°   Wind: 11mph
Humidity: 71%   Direction: 220°SW
Pressure: 30.36"   Gusts: NA
Location:  49°N, 131.08°E
Report Text: UHHH 181130Z 22005MPS CAVOK M22/M26 Q1028 NOSIG RMK QFE764/101923490540
Loading
Personal Weather Stations






























Interactive Weather Map New forecast layout! Learn more

10-Day Weather Forecast

Advertisements
Track Severe Weather on mobile